createdAt,value
2018-12-06T00:00:08.363Z,79.31
2018-12-06T00:02:37.405Z,79.37
2018-12-06T00:05:06.426Z,79.51
2018-12-06T00:07:35.443Z,79.87
2018-12-06T00:10:04.542Z,79.99
2018-12-06T00:12:33.581Z,80.40
2018-12-06T00:15:25.871Z,80.67
2018-12-06T00:17:54.937Z,80.21
2018-12-06T00:20:23.982Z,80.59
2018-12-06T00:22:53.021Z,80.91
2018-12-06T00:25:22.037Z,81.29
2018-12-06T00:27:51.095Z,81.26
2018-12-06T00:30:32.803Z,81.47
2018-12-06T00:33:02.810Z,81.64
2018-12-06T00:35:31.965Z,81.94
2018-12-06T00:38:01.137Z,81.73
2018-12-06T00:40:30.144Z,81.82
2018-12-06T00:42:59.203Z,81.71
2018-12-06T00:45:28.350Z,82.21
2018-12-06T00:47:57.338Z,81.50
2018-12-06T00:50:26.390Z,81.71
2018-12-06T00:52:55.464Z,81.63
2018-12-06T00:55:24.490Z,81.58
2018-12-06T00:57:53.498Z,81.74
2018-12-06T01:00:22.558Z,81.76
2018-12-06T01:02:51.591Z,81.67
2018-12-06T01:05:20.632Z,81.83
2018-12-06T01:07:49.704Z,81.40
2018-12-06T01:10:19.063Z,81.43
2018-12-06T01:12:49.659Z,81.81
2018-12-06T01:15:18.656Z,81.59
2018-12-06T01:17:47.700Z,81.74
2018-12-06T01:20:18.246Z,81.60
2018-12-06T01:22:47.262Z,81.43
2018-12-06T01:25:16.307Z,81.76
2018-12-06T01:27:45.305Z,81.52
2018-12-06T01:30:14.960Z,81.75
2018-12-06T01:32:44.006Z,81.62
2018-12-06T01:35:13.699Z,81.45
2018-12-06T01:37:42.752Z,81.44
2018-12-06T01:40:11.790Z,81.56
2018-12-06T01:42:40.891Z,81.65
2018-12-06T01:45:09.905Z,81.69
2018-12-06T01:47:39.056Z,81.57
2018-12-06T01:50:08.338Z,81.60
2018-12-06T01:52:37.386Z,81.28
2018-12-06T01:55:06.415Z,81.42
2018-12-06T01:57:35.435Z,81.86
2018-12-06T02:00:04.983Z,81.91
2018-12-06T02:02:34.394Z,81.85
2018-12-06T02:05:03.773Z,81.92
2018-12-06T02:07:32.859Z,82.05
2018-12-06T02:10:01.921Z,82.06
2018-12-06T02:12:30.928Z,82.26
2018-12-06T02:15:00.129Z,82.32
2018-12-06T02:17:29.162Z,82.29
2018-12-06T02:19:58.219Z,82.37
2018-12-06T02:22:27.266Z,82.10
2018-12-06T02:24:56.295Z,82.12
2018-12-06T02:27:25.323Z,82.17
2018-12-06T02:29:54.340Z,82.07
2018-12-06T02:32:24.064Z,82.22
2018-12-06T02:34:53.534Z,82.30
2018-12-06T02:37:22.557Z,82.49
2018-12-06T02:39:51.597Z,82.75
2018-12-06T02:42:20.648Z,82.94
2018-12-06T02:44:49.802Z,83.10
2018-12-06T02:47:18.970Z,82.82
2018-12-06T02:49:48.100Z,82.85
2018-12-06T02:52:17.199Z,83.13
2018-12-06T02:54:49.610Z,83.17
2018-12-06T02:57:18.684Z,83.28
2018-12-06T02:59:47.691Z,82.97
2018-12-06T03:02:16.726Z,83.36
2018-12-06T03:04:52.548Z,83.44
2018-12-06T03:07:21.954Z,83.66
2018-12-06T03:09:51.003Z,83.95
2018-12-06T03:12:20.053Z,83.95
2018-12-06T03:14:55.649Z,84.43
2018-12-06T03:17:24.649Z,84.48
2018-12-06T03:19:53.745Z,84.86
2018-12-06T03:22:22.803Z,84.95
2018-12-06T03:24:56.009Z,84.89
2018-12-06T03:27:25.051Z,85.13
2018-12-06T03:29:54.075Z,85.38
2018-12-06T03:32:23.153Z,85.06
2018-12-06T03:34:52.174Z,85.05
2018-12-06T03:37:31.210Z,85.43
2018-12-06T03:40:00.272Z,85.65
2018-12-06T03:42:29.268Z,85.91
2018-12-06T03:44:58.343Z,86.13
2018-12-06T03:47:27.370Z,86.68
2018-12-06T03:49:56.477Z,87.04
2018-12-06T03:52:26.761Z,86.95
2018-12-06T03:54:55.808Z,87.15
2018-12-06T03:57:24.827Z,87.34
2018-12-06T03:59:53.868Z,87.45
2018-12-06T04:02:23.001Z,87.28
2018-12-06T04:04:52.115Z,87.43
2018-12-06T04:07:21.145Z,88.00
2018-12-06T04:09:50.327Z,87.82
2018-12-06T04:12:23.433Z,87.98
2018-12-06T04:14:52.493Z,88.50
2018-12-06T04:17:21.525Z,88.63
2018-12-06T04:19:50.568Z,88.90
2018-12-06T04:22:19.655Z,88.70
2018-12-06T04:24:49.038Z,88.78
2018-12-06T04:27:18.053Z,88.79
2018-12-06T04:29:47.194Z,88.76
2018-12-06T04:32:17.540Z,88.89
2018-12-06T04:34:46.876Z,89.00
2018-12-06T04:37:16.026Z,89.03
2018-12-06T04:39:45.090Z,88.84
2018-12-06T04:42:14.221Z,88.79
2018-12-06T04:44:44.019Z,89.16
2018-12-06T04:47:19.039Z,89.31
2018-12-06T04:49:48.677Z,89.37
2018-12-06T04:52:17.710Z,89.45
2018-12-06T04:54:46.772Z,89.39
2018-12-06T04:57:15.819Z,89.44
2018-12-06T04:59:45.452Z,89.30
2018-12-06T05:02:14.576Z,89.18
2018-12-06T05:04:43.643Z,89.48
2018-12-06T05:07:13.372Z,89.55
2018-12-06T05:09:49.339Z,89.20
2018-12-06T05:12:18.972Z,89.09
2018-12-06T05:14:48.197Z,89.05
2018-12-06T05:17:17.230Z,89.22
2018-12-06T05:19:46.298Z,89.00
2018-12-06T05:22:15.379Z,89.22
2018-12-06T05:24:44.396Z,88.89
2018-12-06T05:27:13.448Z,89.07
2018-12-06T05:29:43.921Z,89.02
2018-12-06T05:32:13.053Z,89.26
2018-12-06T05:34:42.218Z,89.39
2018-12-06T05:37:11.259Z,89.46
2018-12-06T05:39:40.341Z,89.36
2018-12-06T05:42:09.385Z,89.51
2018-12-06T05:44:38.461Z,89.62
2018-12-06T05:47:07.528Z,89.55
2018-12-06T05:49:40.545Z,89.39
2018-12-06T05:52:09.633Z,88.85
2018-12-06T05:54:38.708Z,88.74
2018-12-06T05:57:07.768Z,88.38
2018-12-06T05:59:36.833Z,88.26
2018-12-06T06:02:05.859Z,88.17
2018-12-06T06:04:34.923Z,87.94
2018-12-06T06:07:04.052Z,87.87
2018-12-06T06:09:33.116Z,88.10
2018-12-06T06:12:02.262Z,87.79
2018-12-06T06:14:31.319Z,87.43
2018-12-06T06:17:00.551Z,87.80
2018-12-06T06:19:29.655Z,87.74
2018-12-06T06:21:58.732Z,87.82
2018-12-06T06:24:28.813Z,87.94
2018-12-06T06:26:58.036Z,87.73
2018-12-06T06:29:28.353Z,87.74
2018-12-06T06:31:57.356Z,87.71
2018-12-06T06:34:26.381Z,87.63
2018-12-06T06:36:58.640Z,87.84
2018-12-06T06:39:27.727Z,87.71
2018-12-06T06:41:57.324Z,87.53
2018-12-06T06:44:27.061Z,87.73
2018-12-06T06:46:56.249Z,87.61
2018-12-06T06:49:25.345Z,87.30
2018-12-06T06:51:56.025Z,87.33
2018-12-06T06:54:25.087Z,87.21
2018-12-06T06:56:54.129Z,87.57
2018-12-06T06:59:26.274Z,87.58
2018-12-06T07:01:54.341Z,87.39
2018-12-06T07:04:23.433Z,87.14
2018-12-06T07:06:53.837Z,87.90
2018-12-06T07:09:29.457Z,87.99
2018-12-06T07:11:58.914Z,88.38
2018-12-06T07:14:27.973Z,87.95
2018-12-06T07:16:56.992Z,88.54
2018-12-06T07:19:31.889Z,88.19
2018-12-06T07:22:04.311Z,88.40
2018-12-06T07:24:33.952Z,88.53
2018-12-06T07:27:04.117Z,88.75
2018-12-06T07:29:36.519Z,89.31
2018-12-06T07:32:05.561Z,89.36
2018-12-06T07:34:35.343Z,89.33
2018-12-06T07:37:04.343Z,89.19
2018-12-06T07:39:33.505Z,89.15
2018-12-06T07:42:02.589Z,88.74
2018-12-06T07:44:31.641Z,88.67
2018-12-06T07:47:00.714Z,88.61
2018-12-06T07:49:29.805Z,88.74
2018-12-06T07:51:59.108Z,89.19
2018-12-06T07:54:35.557Z,89.47
2018-12-06T07:57:07.157Z,89.46
2018-12-06T07:59:36.208Z,89.34
2018-12-06T08:02:05.239Z,89.28
2018-12-06T08:04:41.113Z,89.57
2018-12-06T08:07:10.215Z,89.66
2018-12-06T08:09:39.302Z,89.66
2018-12-06T08:12:08.548Z,89.82
2018-12-06T08:14:37.590Z,90.02
2018-12-06T08:17:06.837Z,90.10
2018-12-06T08:19:35.875Z,90.42
2018-12-06T08:22:05.001Z,90.34
2018-12-06T08:24:34.041Z,90.81
2018-12-06T08:27:07.233Z,90.82
2018-12-06T08:29:36.271Z,90.80
2018-12-06T08:32:05.414Z,90.79
2018-12-06T08:34:34.469Z,90.61
2018-12-06T08:37:04.363Z,90.50
2018-12-06T08:39:33.453Z,90.83
2018-12-06T08:42:02.588Z,90.55
2018-12-06T08:44:31.668Z,90.68
2018-12-06T08:47:00.730Z,89.98
2018-12-06T08:49:31.569Z,89.86
2018-12-06T08:52:00.642Z,89.45
2018-12-06T08:54:29.713Z,89.30
2018-12-06T08:56:58.778Z,89.34
2018-12-06T08:59:27.832Z,89.59
2018-12-06T09:01:56.951Z,89.54
2018-12-06T09:04:25.998Z,89.58
2018-12-06T09:06:55.100Z,89.79
2018-12-06T09:09:24.558Z,89.59
2018-12-06T09:11:54.562Z,89.48
2018-12-06T09:14:23.645Z,89.64
2018-12-06T09:16:58.067Z,88.96
2018-12-06T09:19:29.487Z,88.79
2018-12-06T09:21:58.567Z,88.84
2018-12-06T09:24:35.104Z,88.66
2018-12-06T09:27:04.689Z,88.86
2018-12-06T09:29:33.990Z,88.84
2018-12-06T09:32:03.090Z,88.69
2018-12-06T09:34:38.313Z,89.31
2018-12-06T09:37:07.386Z,89.35
2018-12-06T09:39:36.524Z,89.31
2018-12-06T09:42:05.587Z,89.45
2018-12-06T09:44:34.718Z,89.17
2018-12-06T09:47:03.784Z,89.12
2018-12-06T09:49:32.913Z,89.22
2018-12-06T09:52:01.994Z,89.34
2018-12-06T09:54:34.480Z,88.90
2018-12-06T09:57:03.586Z,88.84
2018-12-06T09:59:33.092Z,88.44
2018-12-06T10:02:02.206Z,88.33
2018-12-06T10:04:36.385Z,88.94
2018-12-06T10:07:05.449Z,88.56
2018-12-06T10:09:34.635Z,88.94
2018-12-06T10:12:03.691Z,88.67
2018-12-06T10:14:35.800Z,88.25
2018-12-06T10:17:04.837Z,88.43
2018-12-06T10:19:33.873Z,88.37
2018-12-06T10:22:02.923Z,88.15
2018-12-06T10:24:31.997Z,88.25
2018-12-06T10:27:01.449Z,87.93
2018-12-06T10:29:34.211Z,87.94
2018-12-06T10:32:03.300Z,87.67
2018-12-06T10:34:33.264Z,87.81
2018-12-06T10:37:09.662Z,87.96
2018-12-06T10:39:38.738Z,88.28
2018-12-06T10:42:07.778Z,88.07
2018-12-06T10:44:37.453Z,88.27
2018-12-06T10:47:06.817Z,88.65
2018-12-06T10:49:36.693Z,88.79
2018-12-06T10:52:05.855Z,89.18
2018-12-06T10:54:35.029Z,89.40
2018-12-06T10:57:04.130Z,90.03
2018-12-06T10:59:33.239Z,89.78
2018-12-06T11:02:03.844Z,89.52
2018-12-06T11:04:34.902Z,89.72
2018-12-06T11:07:05.448Z,89.61
2018-12-06T11:09:36.041Z,89.76
2018-12-06T11:12:05.103Z,89.42
2018-12-06T11:14:34.180Z,89.20
2018-12-06T11:17:03.251Z,89.22
2018-12-06T11:19:32.345Z,88.66
2018-12-06T11:22:03.023Z,89.07
2018-12-06T11:24:32.067Z,89.35
2018-12-06T11:27:01.179Z,89.58
2018-12-06T11:29:30.233Z,89.34
2018-12-06T11:32:01.979Z,89.12
2018-12-06T11:34:35.358Z,88.87
2018-12-06T11:37:04.422Z,89.00
2018-12-06T11:39:33.433Z,89.15
2018-12-06T11:42:02.534Z,89.00
2018-12-06T11:44:36.609Z,89.07
2018-12-06T11:47:05.644Z,88.89
2018-12-06T11:49:34.862Z,88.88
2018-12-06T11:52:03.952Z,88.61
2018-12-06T11:54:35.524Z,89.19
2018-12-06T11:57:04.597Z,88.89
2018-12-06T11:59:33.677Z,89.05
2018-12-06T12:02:09.735Z,89.27
2018-12-06T12:04:36.852Z,89.05
2018-12-06T12:07:05.955Z,89.32
2018-12-06T12:09:35.057Z,89.50
2018-12-06T12:12:04.181Z,89.82
2018-12-06T12:14:33.263Z,89.97
2018-12-06T12:17:02.413Z,90.61
2018-12-06T12:19:31.536Z,90.44
2018-12-06T12:22:04.639Z,90.31
2018-12-06T12:24:40.979Z,90.50
2018-12-06T12:27:10.085Z,90.91
2018-12-06T12:29:39.637Z,90.60
2018-12-06T12:32:08.737Z,91.04
2018-12-06T12:34:38.210Z,91.01
2018-12-06T12:37:07.300Z,90.99
2018-12-06T12:39:36.385Z,90.81
2018-12-06T12:42:05.861Z,91.26
2018-12-06T12:44:34.961Z,90.76
2018-12-06T12:47:19.834Z,90.86
2018-12-06T12:49:48.943Z,91.24
2018-12-06T12:52:17.998Z,91.28
2018-12-06T12:54:47.371Z,91.37
2018-12-06T12:57:21.507Z,91.55
2018-12-06T12:59:52.275Z,91.22
2018-12-06T13:02:21.583Z,91.22
2018-12-06T13:04:55.948Z,91.37
2018-12-06T13:07:25.207Z,91.25
2018-12-06T13:09:54.825Z,91.46
2018-12-06T13:12:24.186Z,91.09
2018-12-06T13:14:53.426Z,91.28
2018-12-06T13:17:22.854Z,91.31
2018-12-06T13:20:03.128Z,91.15
2018-12-06T13:22:33.656Z,91.09
2018-12-06T13:25:05.415Z,91.36
2018-12-06T13:27:34.601Z,91.32
2018-12-06T13:30:06.219Z,91.71
2018-12-06T13:35:29.564Z,91.45
2018-12-06T13:37:58.678Z,91.73
2018-12-06T13:40:28.039Z,91.81
2018-12-06T13:43:01.690Z,92.15
2018-12-06T13:45:32.478Z,92.02
2018-12-06T13:48:02.256Z,92.48
2018-12-06T13:50:36.650Z,92.21
2018-12-06T13:53:05.796Z,92.04
2018-12-06T13:55:34.861Z,92.02
2018-12-06T13:58:05.109Z,91.84
2018-12-06T14:00:34.417Z,91.67
2018-12-06T14:03:12.565Z,91.92
2018-12-06T14:05:41.623Z,91.61
2018-12-06T14:08:10.697Z,91.72
2018-12-06T14:10:39.753Z,91.27
2018-12-06T14:13:08.840Z,91.59
2018-12-06T14:15:37.929Z,91.05
2018-12-06T14:18:07.160Z,91.22
2018-12-06T14:20:36.322Z,91.30
2018-12-06T14:23:05.433Z,90.86
2018-12-06T14:25:42.321Z,91.26
2018-12-06T14:28:11.395Z,91.39
2018-12-06T14:30:40.505Z,91.43
2018-12-06T14:33:09.748Z,91.49
2018-12-06T14:35:38.787Z,91.44
2018-12-06T14:38:18.037Z,91.38
2018-12-06T14:40:54.002Z,91.50
2018-12-06T14:43:24.179Z,91.76
2018-12-06T14:45:53.487Z,91.58
2018-12-06T14:48:22.831Z,91.81
2018-12-06T14:50:51.955Z,91.75
2018-12-06T14:53:21.051Z,92.12
2018-12-06T14:55:51.000Z,92.34
2018-12-06T14:58:20.065Z,92.59
2018-12-06T15:00:49.146Z,92.15
2018-12-06T15:03:18.241Z,92.05
2018-12-06T15:05:47.339Z,92.17
2018-12-06T15:08:16.443Z,92.10
2018-12-06T15:10:45.506Z,92.26
2018-12-06T15:13:14.577Z,91.87
2018-12-06T15:15:43.688Z,92.24
2018-12-06T15:18:12.776Z,91.96
2018-12-06T15:20:52.330Z,92.37
2018-12-06T15:23:21.362Z,92.56
2018-12-06T15:25:50.532Z,92.20
2018-12-06T15:28:19.621Z,92.41
2018-12-06T15:30:48.608Z,92.39
2018-12-06T15:33:36.457Z,92.73
2018-12-06T15:36:05.573Z,92.66
2018-12-06T15:38:34.660Z,92.35
2018-12-06T15:41:03.774Z,92.51
2018-12-06T15:43:33.387Z,92.62
2018-12-06T15:46:02.474Z,92.63
2018-12-06T15:48:31.627Z,92.55
2018-12-06T15:51:15.453Z,92.69
2018-12-06T15:53:44.646Z,92.51
2018-12-06T15:56:13.743Z,92.47
2018-12-06T15:58:42.818Z,92.54
2018-12-06T16:01:18.712Z,92.51
2018-12-06T16:04:05.899Z,92.58
2018-12-06T16:06:39.418Z,92.50
2018-12-06T16:09:08.482Z,92.78
2018-12-06T16:11:37.647Z,92.48
2018-12-06T16:14:06.778Z,92.35
2018-12-06T16:16:35.887Z,92.60
2018-12-06T16:19:28.594Z,92.18
2018-12-06T16:21:57.842Z,92.20
2018-12-06T16:24:26.934Z,92.34
2018-12-06T16:26:56.015Z,92.29
2018-12-06T16:29:25.058Z,92.29
2018-12-06T16:31:54.192Z,92.17
2018-12-06T16:34:23.260Z,92.14
2018-12-06T16:36:52.392Z,92.17
2018-12-06T16:39:21.687Z,91.78
2018-12-06T16:42:03.596Z,92.11
2018-12-06T16:44:33.037Z,91.60
2018-12-06T16:47:02.088Z,91.61
2018-12-06T16:49:32.113Z,91.56
2018-12-06T16:52:05.468Z,91.68
2018-12-06T16:54:34.574Z,91.48
2018-12-06T16:57:03.673Z,91.80
2018-12-06T16:59:32.815Z,91.62
2018-12-06T17:02:01.930Z,91.71
2018-12-06T17:04:30.968Z,91.65
2018-12-06T17:07:00.046Z,91.42
2018-12-06T17:09:38.328Z,91.58
2018-12-06T17:12:08.737Z,91.51
2018-12-06T17:14:38.044Z,91.61
2018-12-06T17:17:07.136Z,91.65
2018-12-06T17:19:36.346Z,91.82
2018-12-06T17:22:05.440Z,91.82
2018-12-06T17:24:34.499Z,91.19
2018-12-06T17:27:03.563Z,91.52
2018-12-06T17:29:33.798Z,91.35
2018-12-06T17:32:07.909Z,91.77
2018-12-06T17:34:36.998Z,91.86
2018-12-06T17:37:06.066Z,91.56
2018-12-06T17:39:36.119Z,91.61
2018-12-06T17:42:05.236Z,91.72
2018-12-06T17:44:41.325Z,91.37
2018-12-06T17:47:10.446Z,91.42
2018-12-06T17:49:39.563Z,91.01
2018-12-06T17:52:08.703Z,91.17
2018-12-06T17:54:42.077Z,91.14
2018-12-06T17:57:11.253Z,91.12
2018-12-06T17:59:40.323Z,90.94
2018-12-06T18:02:09.412Z,91.20
2018-12-06T18:04:42.320Z,91.31
2018-12-06T18:07:11.371Z,91.29
2018-12-06T18:09:40.541Z,91.11
2018-12-06T18:12:09.672Z,90.83
2018-12-06T18:14:38.853Z,90.97
2018-12-06T18:17:07.980Z,90.83
2018-12-06T18:19:37.124Z,91.08
2018-12-06T18:22:06.248Z,91.19
2018-12-06T18:24:35.346Z,90.75
2018-12-06T18:27:04.527Z,91.20
2018-12-06T18:29:33.654Z,91.01
2018-12-06T18:32:02.732Z,90.97
2018-12-06T18:34:31.820Z,90.94
2018-12-06T18:37:00.946Z,91.05
2018-12-06T18:39:30.024Z,90.54
2018-12-06T18:42:06.820Z,91.26
2018-12-06T18:44:35.966Z,91.02
2018-12-06T18:47:07.598Z,91.38
2018-12-06T18:49:37.902Z,90.97
2018-12-06T18:52:07.864Z,91.44
2018-12-06T18:54:39.565Z,91.82
2018-12-06T18:57:08.689Z,91.57
2018-12-06T18:59:37.827Z,91.36
2018-12-06T19:02:06.879Z,91.24
2018-12-06T19:04:36.059Z,91.39
2018-12-06T19:07:05.224Z,91.55
2018-12-06T19:09:34.371Z,91.23
2018-12-06T19:12:03.534Z,90.92
2018-12-06T19:14:32.649Z,91.23
2018-12-06T19:17:01.871Z,90.99
2018-12-06T19:19:31.662Z,91.17
2018-12-06T19:22:00.910Z,91.10
2018-12-06T19:24:30.033Z,91.01
2018-12-06T19:26:59.153Z,91.39
2018-12-06T19:29:32.313Z,91.33
2018-12-06T19:32:01.719Z,91.29
2018-12-06T19:34:33.307Z,90.92
2018-12-06T19:37:03.701Z,90.57
2018-12-06T19:39:32.958Z,90.76
2018-12-06T19:42:02.894Z,90.40
2018-12-06T19:44:32.783Z,90.49
2018-12-06T19:47:01.952Z,90.09
2018-12-06T20:21:38.026Z,90.56
2018-12-06T20:24:07.517Z,90.48
2018-12-06T20:33:51.855Z,91.11
2018-12-06T20:39:14.715Z,91.16
2018-12-06T20:44:38.613Z,91.47
2018-12-06T20:47:09.940Z,91.47
2018-12-06T20:49:43.610Z,91.18
2018-12-06T20:53:44.057Z,91.69
2018-12-06T21:15:24.727Z,91.78
2018-12-06T21:17:53.902Z,91.89
2018-12-06T21:33:28.561Z,91.88
2018-12-06T21:45:05.003Z,92.47
2018-12-06T21:55:29.415Z,92.75
2018-12-06T21:57:58.976Z,92.49
2018-12-06T22:00:40.051Z,92.42
2018-12-06T22:06:02.803Z,92.54
2018-12-06T22:08:37.641Z,92.30
2018-12-06T22:11:06.730Z,92.46
2018-12-06T22:13:35.739Z,92.16
2018-12-06T22:16:04.771Z,92.67
2018-12-06T22:18:33.980Z,92.75
2018-12-06T22:21:02.995Z,92.82
2018-12-06T22:23:32.077Z,92.89
2018-12-06T22:26:01.111Z,92.57
2018-12-06T22:28:34.038Z,93.12
2018-12-06T22:31:01.174Z,92.86
2018-12-06T22:33:30.199Z,92.95
2018-12-06T22:35:59.248Z,92.83
2018-12-06T22:38:34.052Z,92.88
2018-12-06T22:40:59.371Z,93.06
2018-12-06T22:43:28.448Z,92.93
2018-12-06T22:46:04.369Z,92.83
2018-12-06T22:51:26.602Z,93.00
2018-12-06T22:53:55.592Z,92.49
2018-12-06T22:56:24.706Z,92.82
2018-12-06T22:58:57.552Z,92.52
2018-12-06T23:01:32.001Z,92.62
2018-12-06T23:04:01.065Z,92.76
2018-12-06T23:06:30.093Z,92.42
2018-12-06T23:08:59.101Z,92.51
2018-12-06T23:11:28.158Z,92.85
2018-12-06T23:13:58.247Z,92.57
2018-12-06T23:16:27.390Z,92.65
2018-12-06T23:18:56.431Z,92.61
2018-12-06T23:21:26.095Z,92.79
2018-12-06T23:23:56.304Z,92.99
2018-12-06T23:26:31.620Z,92.62
2018-12-06T23:29:00.664Z,93.09
2018-12-06T23:31:29.680Z,92.71
2018-12-06T23:33:58.692Z,92.71
2018-12-06T23:39:21.058Z,92.93
2018-12-06T23:41:50.145Z,92.71
2018-12-06T23:44:19.813Z,92.57
2018-12-06T23:47:09.689Z,92.70
2018-12-06T23:52:33.694Z,92.67
2018-12-06T23:55:05.545Z,92.54
2018-12-06T23:57:40.090Z,92.72
